Repülésmeteorológia

  • METAR LHSM 181245Z 18013KT CAVOK 06/M04 Q1010 NOSIG=
  • METAR LHSM 181215Z 18012KT CAVOK 05/M02 Q1011 NOSIG=
  • METAR LHSM 181145Z 18008KT CAVOK 04/M03 Q1012 NOSIG=
  • METAR LHSM 181115Z 18008KT CAVOK 05/M02 Q1013 NOSIG=
  • METAR LHSM 181045Z 19008KT CAVOK 05/M02 Q1013 NOSIG=

  • TAF LHSM 181115Z 1812/1821 20009KT CAVOK
  • TAF LHSM 180815Z 1809/1818 28006KT CAVOK BECMG 1809/1812 21009KT
  • TAF LHSM 180515Z 1806/1815 28010KT CAVOK
  • TAF LHSM 171115Z 1712/1721 VRB03KT 9999 SCT030 SCT080
  • TAF LHSM 170815Z 1709/1718 19004KT 6000 NSC